sensor_id;sensor_type;location;lat;lon;timestamp;P1;durP1;ratioP1;P2;durP2;ratioP2
10144;SDS011;5113;41.822;23.564;2023-04-01T00:02:12;26.43;;;11.70;;
10144;SDS011;5113;41.822;23.564;2023-04-01T00:05:19;18.63;;;11.30;;
10144;SDS011;5113;41.822;23.564;2023-04-01T00:08:26;23.23;;;10.97;;
10144;SDS011;5113;41.822;23.564;2023-04-01T00:11:32;34.77;;;14.73;;
10144;SDS011;5113;41.822;23.564;2023-04-01T00:14:39;21.20;;;10.97;;
10144;SDS011;5113;41.822;23.564;2023-04-01T00:17:46;21.73;;;11.07;;
10144;SDS011;5113;41.822;23.564;2023-04-01T00:20:54;25.00;;;10.90;;
10144;SDS011;5113;41.822;23.564;2023-04-01T00:24:00;11.80;;;6.63;;
10144;SDS011;5113;41.822;23.564;2023-04-01T00:27:06;16.70;;;7.87;;
10144;SDS011;5113;41.822;23.564;2023-04-01T00:30:13;13.63;;;7.30;;
10144;SDS011;5113;41.822;23.564;2023-04-01T00:33:21;17.33;;;8.97;;
10144;SDS011;5113;41.822;23.564;2023-04-01T00:36:27;12.37;;;7.40;;
10144;SDS011;5113;41.822;23.564;2023-04-01T00:39:33;12.57;;;6.87;;
10144;SDS011;5113;41.822;23.564;2023-04-01T00:42:40;14.20;;;7.73;;
10144;SDS011;5113;41.822;23.564;2023-04-01T00:45:47;15.27;;;8.60;;
10144;SDS011;5113;41.822;23.564;2023-04-01T00:48:55;20.97;;;7.97;;
10144;SDS011;5113;41.822;23.564;2023-04-01T00:52:02;13.30;;;8.03;;
10144;SDS011;5113;41.822;23.564;2023-04-01T00:55:10;11.83;;;7.17;;
10144;SDS011;5113;41.822;23.564;2023-04-01T00:58:18;19.03;;;8.87;;
10144;SDS011;5113;41.822;23.564;2023-04-01T01:01:29;21.00;;;10.37;;
10144;SDS011;5113;41.822;23.564;2023-04-01T01:04:37;16.13;;;9.00;;
10144;SDS011;5113;41.822;23.564;2023-04-01T01:07:44;17.17;;;7.10;;
10144;SDS011;5113;41.822;23.564;2023-04-01T01:10:59;12.37;;;7.00;;
10144;SDS011;5113;41.822;23.564;2023-04-01T01:14:08;12.70;;;5.93;;
10144;SDS011;5113;41.822;23.564;2023-04-01T01:17:26;11.93;;;6.13;;
10144;SDS011;5113;41.822;23.564;2023-04-01T01:20:53;15.80;;;7.80;;
10144;SDS011;5113;41.822;23.564;2023-04-01T01:24:34;17.33;;;8.43;;
10144;SDS011;5113;41.822;23.564;2023-04-01T01:27:56;20.20;;;9.27;;
10144;SDS011;5113;41.822;23.564;2023-04-01T01:31:12;12.13;;;7.10;;
10144;SDS011;5113;41.822;23.564;2023-04-01T01:34:24;12.70;;;7.00;;
10144;SDS011;5113;41.822;23.564;2023-04-01T01:37:36;20.43;;;11.17;;
10144;SDS011;5113;41.822;23.564;2023-04-01T01:40:45;13.13;;;7.83;;
10144;SDS011;5113;41.822;23.564;2023-04-01T01:43:58;13.43;;;8.37;;
10144;SDS011;5113;41.822;23.564;2023-04-01T01:47:08;16.03;;;7.67;;
10144;SDS011;5113;41.822;23.564;2023-04-01T01:50:15;10.70;;;7.03;;
10144;SDS011;5113;41.822;23.564;2023-04-01T01:53:24;11.07;;;7.17;;
10144;SDS011;5113;41.822;23.564;2023-04-01T01:56:31;16.30;;;8.87;;
10144;SDS011;5113;41.822;23.564;2023-04-01T01:59:40;13.53;;;8.97;;
10144;SDS011;5113;41.822;23.564;2023-04-01T02:02:48;16.03;;;8.57;;
10144;SDS011;5113;41.822;23.564;2023-04-01T02:05:56;18.03;;;10.30;;
10144;SDS011;5113;41.822;23.564;2023-04-01T02:09:07;29.33;;;15.17;;
10144;SDS011;5113;41.822;23.564;2023-04-01T02:12:16;17.40;;;11.57;;
10144;SDS011;5113;41.822;23.564;2023-04-01T02:15:24;16.30;;;8.50;;
10144;SDS011;5113;41.822;23.564;2023-04-01T02:18:35;14.00;;;8.07;;
10144;SDS011;5113;41.822;23.564;2023-04-01T02:21:43;15.93;;;8.23;;
10144;SDS011;5113;41.822;23.564;2023-04-01T02:24:53;16.27;;;9.23;;
10144;SDS011;5113;41.822;23.564;2023-04-01T02:28:04;11.83;;;8.23;;
10144;SDS011;5113;41.822;23.564;2023-04-01T02:31:11;14.60;;;9.77;;
10144;SDS011;5113;41.822;23.564;2023-04-01T02:34:20;20.77;;;10.40;;
10144;SDS011;5113;41.822;23.564;2023-04-01T02:37:29;17.83;;;8.20;;
10144;SDS011;5113;41.822;23.564;2023-04-01T02:40:44;19.20;;;10.30;;
10144;SDS011;5113;41.822;23.564;2023-04-01T02:43:52;14.50;;;8.97;;
10144;SDS011;5113;41.822;23.564;2023-04-01T02:46:59;18.13;;;10.43;;
10144;SDS011;5113;41.822;23.564;2023-04-01T02:50:06;24.40;;;11.73;;
10144;SDS011;5113;41.822;23.564;2023-04-01T02:53:14;30.30;;;13.73;;
10144;SDS011;5113;41.822;23.564;2023-04-01T02:56:22;24.57;;;12.40;;
10144;SDS011;5113;41.822;23.564;2023-04-01T02:59:28;20.73;;;11.17;;
10144;SDS011;5113;41.822;23.564;2023-04-01T03:02:34;24.80;;;11.87;;
10144;SDS011;5113;41.822;23.564;2023-04-01T03:05:41;16.50;;;8.87;;
10144;SDS011;5113;41.822;23.564;2023-04-01T03:08:47;11.90;;;7.23;;
10144;SDS011;5113;41.822;23.564;2023-04-01T03:11:55;16.70;;;6.63;;
10144;SDS011;5113;41.822;23.564;2023-04-01T03:15:01;12.53;;;7.33;;
10144;SDS011;5113;41.822;23.564;2023-04-01T03:18:15;19.70;;;7.90;;
10144;SDS011;5113;41.822;23.564;2023-04-01T03:21:22;13.43;;;7.63;;
10144;SDS011;5113;41.822;23.564;2023-04-01T03:24:29;10.13;;;7.37;;
10144;SDS011;5113;41.822;23.564;2023-04-01T03:27:37;17.17;;;7.23;;
10144;SDS011;5113;41.822;23.564;2023-04-01T03:30:43;18.23;;;8.50;;
10144;SDS011;5113;41.822;23.564;2023-04-01T03:33:50;25.87;;;12.73;;
10144;SDS011;5113;41.822;23.564;2023-04-01T03:36:56;24.53;;;11.80;;
10144;SDS011;5113;41.822;23.564;2023-04-01T03:40:03;22.00;;;12.33;;
10144;SDS011;5113;41.822;23.564;2023-04-01T03:43:12;22.03;;;13.17;;
10144;SDS011;5113;41.822;23.564;2023-04-01T03:46:18;15.13;;;9.93;;
10144;SDS011;5113;41.822;23.564;2023-04-01T03:49:25;32.23;;;17.40;;
10144;SDS011;5113;41.822;23.564;2023-04-01T03:52:31;45.10;;;24.97;;
10144;SDS011;5113;41.822;23.564;2023-04-01T03:55:38;30.70;;;18.67;;
10144;SDS011;5113;41.822;23.564;2023-04-01T03:58:45;38.30;;;19.27;;
10144;SDS011;5113;41.822;23.564;2023-04-01T04:01:52;37.03;;;19.80;;
10144;SDS011;5113;41.822;23.564;2023-04-01T04:04:58;34.03;;;21.00;;
10144;SDS011;5113;41.822;23.564;2023-04-01T04:08:04;30.67;;;20.30;;
10144;SDS011;5113;41.822;23.564;2023-04-01T04:11:10;23.43;;;13.10;;
10144;SDS011;5113;41.822;23.564;2023-04-01T04:14:18;19.73;;;11.93;;
10144;SDS011;5113;41.822;23.564;2023-04-01T04:17:24;23.70;;;14.20;;
10144;SDS011;5113;41.822;23.564;2023-04-01T04:20:30;23.47;;;13.43;;
10144;SDS011;5113;41.822;23.564;2023-04-01T04:23:37;24.10;;;14.37;;
10144;SDS011;5113;41.822;23.564;2023-04-01T04:26:43;30.80;;;16.33;;
10144;SDS011;5113;41.822;23.564;2023-04-01T04:29:51;36.27;;;19.70;;
10144;SDS011;5113;41.822;23.564;2023-04-01T04:32:57;29.17;;;18.87;;
10144;SDS011;5113;41.822;23.564;2023-04-01T04:36:04;31.73;;;19.07;;
10144;SDS011;5113;41.822;23.564;2023-04-01T04:39:11;30.10;;;19.97;;
10144;SDS011;5113;41.822;23.564;2023-04-01T04:42:17;32.77;;;21.33;;
10144;SDS011;5113;41.822;23.564;2023-04-01T04:45:24;32.77;;;19.60;;
10144;SDS011;5113;41.822;23.564;2023-04-01T04:48:31;32.90;;;18.53;;
10144;SDS011;5113;41.822;23.564;2023-04-01T04:51:37;63.83;;;32.50;;
10144;SDS011;5113;41.822;23.564;2023-04-01T04:54:43;50.57;;;31.03;;
10144;SDS011;5113;41.822;23.564;2023-04-01T04:57:50;71.77;;;34.90;;
10144;SDS011;5113;41.822;23.564;2023-04-01T05:00:57;72.57;;;33.67;;
10144;SDS011;5113;41.822;23.564;2023-04-01T05:04:04;31.27;;;16.23;;
10144;SDS011;5113;41.822;23.564;2023-04-01T05:07:10;26.00;;;13.90;;
10144;SDS011;5113;41.822;23.564;2023-04-01T05:10:17;21.20;;;13.70;;
10144;SDS011;5113;41.822;23.564;2023-04-01T05:13:25;22.93;;;12.77;;
10144;SDS011;5113;41.822;23.564;2023-04-01T05:16:32;33.13;;;16.37;;
10144;SDS011;5113;41.822;23.564;2023-04-01T05:19:39;36.03;;;21.17;;
10144;SDS011;5113;41.822;23.564;2023-04-01T05:22:45;32.47;;;21.20;;
10144;SDS011;5113;41.822;23.564;2023-04-01T05:25:51;28.40;;;16.97;;
10144;SDS011;5113;41.822;23.564;2023-04-01T05:28:57;27.27;;;16.17;;
10144;SDS011;5113;41.822;23.564;2023-04-01T05:32:05;20.77;;;14.90;;
10144;SDS011;5113;41.822;23.564;2023-04-01T05:35:11;21.23;;;14.03;;
10144;SDS011;5113;41.822;23.564;2023-04-01T05:38:18;22.97;;;14.03;;
10144;SDS011;5113;41.822;23.564;2023-04-01T05:41:24;19.53;;;11.80;;
10144;SDS011;5113;41.822;23.564;2023-04-01T05:44:30;16.90;;;11.57;;
10144;SDS011;5113;41.822;23.564;2023-04-01T05:47:38;29.93;;;18.10;;
10144;SDS011;5113;41.822;23.564;2023-04-01T05:50:45;44.60;;;27.80;;
10144;SDS011;5113;41.822;23.564;2023-04-01T05:53:51;26.93;;;17.40;;
10144;SDS011;5113;41.822;23.564;2023-04-01T05:56:57;38.80;;;16.50;;
10144;SDS011;5113;41.822;23.564;2023-04-01T06:00:04;25.07;;;14.40;;
10144;SDS011;5113;41.822;23.564;2023-04-01T06:03:13;27.23;;;15.67;;
10144;SDS011;5113;41.822;23.564;2023-04-01T06:06:20;12.27;;;7.00;;
10144;SDS011;5113;41.822;23.564;2023-04-01T06:09:29;11.23;;;8.93;;
10144;SDS011;5113;41.822;23.564;2023-04-01T06:12:39;11.13;;;6.93;;
10144;SDS011;5113;41.822;23.564;2023-04-01T06:15:58;16.23;;;7.57;;
10144;SDS011;5113;41.822;23.564;2023-04-01T06:19:18;11.57;;;6.90;;
10144;SDS011;5113;41.822;23.564;2023-04-01T06:22:35;18.33;;;10.67;;
10144;SDS011;5113;41.822;23.564;2023-04-01T06:25:59;19.53;;;12.27;;
10144;SDS011;5113;41.822;23.564;2023-04-01T06:29:26;27.93;;;14.00;;
10144;SDS011;5113;41.822;23.564;2023-04-01T06:32:50;19.10;;;13.40;;
10144;SDS011;5113;41.822;23.564;2023-04-01T06:36:21;19.10;;;12.73;;
10144;SDS011;5113;41.822;23.564;2023-04-01T06:43:29;13.57;;;7.87;;
10144;SDS011;5113;41.822;23.564;2023-04-01T06:46:47;14.43;;;8.83;;
10144;SDS011;5113;41.822;23.564;2023-04-01T06:50:01;9.50;;;6.27;;
10144;SDS011;5113;41.822;23.564;2023-04-01T06:53:15;21.37;;;9.70;;
10144;SDS011;5113;41.822;23.564;2023-04-01T06:56:27;5.60;;;4.93;;
10144;SDS011;5113;41.822;23.564;2023-04-01T06:59:35;11.00;;;6.93;;
10144;SDS011;5113;41.822;23.564;2023-04-01T07:02:43;12.63;;;6.27;;
10144;SDS011;5113;41.822;23.564;2023-04-01T07:05:58;10.23;;;6.30;;
10144;SDS011;5113;41.822;23.564;2023-04-01T07:09:10;6.80;;;4.87;;
10144;SDS011;5113;41.822;23.564;2023-04-01T07:12:24;10.43;;;7.20;;
10144;SDS011;5113;41.822;23.564;2023-04-01T07:15:40;10.37;;;6.67;;
10144;SDS011;5113;41.822;23.564;2023-04-01T07:18:49;8.50;;;6.30;;
10144;SDS011;5113;41.822;23.564;2023-04-01T07:22:02;11.43;;;7.93;;
10144;SDS011;5113;41.822;23.564;2023-04-01T07:25:13;15.83;;;8.27;;
10144;SDS011;5113;41.822;23.564;2023-04-01T07:28:22;10.03;;;6.13;;
10144;SDS011;5113;41.822;23.564;2023-04-01T07:31:37;7.23;;;6.10;;
10144;SDS011;5113;41.822;23.564;2023-04-01T07:34:55;9.30;;;6.37;;
10144;SDS011;5113;41.822;23.564;2023-04-01T07:38:17;12.03;;;8.60;;
10144;SDS011;5113;41.822;23.564;2023-04-01T07:41:36;12.20;;;8.13;;
10144;SDS011;5113;41.822;23.564;2023-04-01T07:44:54;9.47;;;6.30;;
10144;SDS011;5113;41.822;23.564;2023-04-01T07:48:13;9.70;;;7.13;;
10144;SDS011;5113;41.822;23.564;2023-04-01T07:51:30;14.13;;;8.33;;
10144;SDS011;5113;41.822;23.564;2023-04-01T07:54:45;13.17;;;8.03;;
10144;SDS011;5113;41.822;23.564;2023-04-01T07:57:58;7.73;;;5.87;;
10144;SDS011;5113;41.822;23.564;2023-04-01T08:01:11;10.17;;;6.10;;
10144;SDS011;5113;41.822;23.564;2023-04-01T08:04:26;6.67;;;4.90;;
10144;SDS011;5113;41.822;23.564;2023-04-01T08:07:43;11.93;;;6.20;;
10144;SDS011;5113;41.822;23.564;2023-04-01T08:10:57;5.20;;;4.63;;
10144;SDS011;5113;41.822;23.564;2023-04-01T08:14:13;9.37;;;7.13;;
10144;SDS011;5113;41.822;23.564;2023-04-01T08:17:28;9.83;;;6.53;;
10144;SDS011;5113;41.822;23.564;2023-04-01T08:20:43;14.10;;;10.27;;
10144;SDS011;5113;41.822;23.564;2023-04-01T08:23:54;11.73;;;8.47;;
10144;SDS011;5113;41.822;23.564;2023-04-01T08:27:03;18.40;;;11.77;;
10144;SDS011;5113;41.822;23.564;2023-04-01T08:30:20;21.10;;;10.43;;
10144;SDS011;5113;41.822;23.564;2023-04-01T08:33:29;13.17;;;8.63;;
10144;SDS011;5113;41.822;23.564;2023-04-01T08:36:37;8.67;;;5.73;;
10144;SDS011;5113;41.822;23.564;2023-04-01T08:39:49;16.53;;;10.97;;
10144;SDS011;5113;41.822;23.564;2023-04-01T08:43:03;11.97;;;6.77;;
10144;SDS011;5113;41.822;23.564;2023-04-01T08:46:21;9.00;;;4.80;;
10144;SDS011;5113;41.822;23.564;2023-04-01T08:53:35;13.07;;;8.27;;
10144;SDS011;5113;41.822;23.564;2023-04-01T08:56:55;9.47;;;6.90;;
10144;SDS011;5113;41.822;23.564;2023-04-01T09:00:11;9.97;;;8.10;;
10144;SDS011;5113;41.822;23.564;2023-04-01T09:03:36;12.23;;;7.40;;
10144;SDS011;5113;41.822;23.564;2023-04-01T09:06:51;5.93;;;5.00;;
10144;SDS011;5113;41.822;23.564;2023-04-01T09:10:32;7.43;;;5.10;;
10144;SDS011;5113;41.822;23.564;2023-04-01T09:14:05;4.67;;;3.83;;
10144;SDS011;5113;41.822;23.564;2023-04-01T09:17:28;9.50;;;5.57;;
10144;SDS011;5113;41.822;23.564;2023-04-01T09:20:47;6.83;;;5.33;;
10144;SDS011;5113;41.822;23.564;2023-04-01T09:27:37;11.23;;;7.40;;
10144;SDS011;5113;41.822;23.564;2023-04-01T09:34:25;10.13;;;7.40;;
10144;SDS011;5113;41.822;23.564;2023-04-01T09:37:52;24.77;;;12.83;;
10144;SDS011;5113;41.822;23.564;2023-04-01T09:41:05;9.30;;;6.40;;
10144;SDS011;5113;41.822;23.564;2023-04-01T09:44:18;11.60;;;5.80;;
10144;SDS011;5113;41.822;23.564;2023-04-01T09:47:43;7.43;;;5.83;;
10144;SDS011;5113;41.822;23.564;2023-04-01T09:51:01;10.90;;;6.00;;
10144;SDS011;5113;41.822;23.564;2023-04-01T09:54:22;12.30;;;6.17;;
10144;SDS011;5113;41.822;23.564;2023-04-01T10:20:51;5.00;;;3.63;;
10144;SDS011;5113;41.822;23.564;2023-04-01T10:27:51;10.20;;;3.47;;
10144;SDS011;5113;41.822;23.564;2023-04-01T10:31:29;13.03;;;4.30;;
10144;SDS011;5113;41.822;23.564;2023-04-01T10:35:19;7.60;;;3.30;;
10144;SDS011;5113;41.822;23.564;2023-04-01T10:38:56;7.37;;;3.03;;
10144;SDS011;5113;41.822;23.564;2023-04-01T10:49:47;5.40;;;3.67;;
10144;SDS011;5113;41.822;23.564;2023-04-01T10:53:28;5.27;;;3.17;;
10144;SDS011;5113;41.822;23.564;2023-04-01T11:00:23;5.80;;;2.67;;
10144;SDS011;5113;41.822;23.564;2023-04-01T11:07:58;9.07;;;4.10;;
10144;SDS011;5113;41.822;23.564;2023-04-01T11:19:14;4.93;;;3.00;;
10144;SDS011;5113;41.822;23.564;2023-04-01T11:22:49;8.30;;;4.13;;
10144;SDS011;5113;41.822;23.564;2023-04-01T11:26:09;8.03;;;3.50;;
10144;SDS011;5113;41.822;23.564;2023-04-01T11:29:31;5.03;;;3.60;;
10144;SDS011;5113;41.822;23.564;2023-04-01T11:33:04;5.50;;;3.17;;
10144;SDS011;5113;41.822;23.564;2023-04-01T11:36:25;5.70;;;4.33;;
10144;SDS011;5113;41.822;23.564;2023-04-01T11:39:43;9.30;;;3.87;;
10144;SDS011;5113;41.822;23.564;2023-04-01T11:43:07;2.70;;;2.37;;
10144;SDS011;5113;41.822;23.564;2023-04-01T11:46:37;6.80;;;3.00;;
10144;SDS011;5113;41.822;23.564;2023-04-01T11:49:53;6.40;;;2.73;;
10144;SDS011;5113;41.822;23.564;2023-04-01T11:53:20;6.80;;;4.37;;
10144;SDS011;5113;41.822;23.564;2023-04-01T11:56:38;7.67;;;4.63;;
10144;SDS011;5113;41.822;23.564;2023-04-01T12:00:02;6.77;;;3.23;;
10144;SDS011;5113;41.822;23.564;2023-04-01T12:06:59;5.20;;;2.77;;
10144;SDS011;5113;41.822;23.564;2023-04-01T12:10:15;6.63;;;2.73;;
10144;SDS011;5113;41.822;23.564;2023-04-01T12:13:29;7.43;;;3.03;;
10144;SDS011;5113;41.822;23.564;2023-04-01T12:16:45;7.43;;;2.67;;
10144;SDS011;5113;41.822;23.564;2023-04-01T12:19:59;7.77;;;2.40;;
10144;SDS011;5113;41.822;23.564;2023-04-01T12:23:34;4.83;;;2.37;;
10144;SDS011;5113;41.822;23.564;2023-04-01T12:27:26;6.00;;;2.87;;
10144;SDS011;5113;41.822;23.564;2023-04-01T12:41:29;6.33;;;5.13;;
10144;SDS011;5113;41.822;23.564;2023-04-01T12:44:48;5.57;;;3.70;;
10144;SDS011;5113;41.822;23.564;2023-04-01T12:52:05;2.80;;;2.53;;
10144;SDS011;5113;41.822;23.564;2023-04-01T12:59:02;9.33;;;4.77;;
10144;SDS011;5113;41.822;23.564;2023-04-01T13:02:28;9.73;;;5.33;;
10144;SDS011;5113;41.822;23.564;2023-04-01T13:06:00;8.30;;;5.00;;
10144;SDS011;5113;41.822;23.564;2023-04-01T13:09:27;6.83;;;4.50;;
10144;SDS011;5113;41.822;23.564;2023-04-01T13:12:56;9.87;;;4.47;;
10144;SDS011;5113;41.822;23.564;2023-04-01T13:16:14;6.10;;;4.47;;
10144;SDS011;5113;41.822;23.564;2023-04-01T13:19:29;6.90;;;4.57;;
10144;SDS011;5113;41.822;23.564;2023-04-01T13:22:51;5.57;;;4.27;;
10144;SDS011;5113;41.822;23.564;2023-04-01T13:26:13;5.33;;;3.63;;
10144;SDS011;5113;41.822;23.564;2023-04-01T13:29:25;6.93;;;5.87;;
10144;SDS011;5113;41.822;23.564;2023-04-01T13:32:38;9.13;;;5.80;;
10144;SDS011;5113;41.822;23.564;2023-04-01T13:35:53;5.40;;;3.00;;
10144;SDS011;5113;41.822;23.564;2023-04-01T13:39:20;4.57;;;4.17;;
10144;SDS011;5113;41.822;23.564;2023-04-01T13:42:47;6.50;;;3.83;;
10144;SDS011;5113;41.822;23.564;2023-04-01T13:49:44;2.13;;;1.97;;
10144;SDS011;5113;41.822;23.564;2023-04-01T13:53:07;15.80;;;8.67;;
10144;SDS011;5113;41.822;23.564;2023-04-01T13:56:36;7.97;;;4.07;;
10144;SDS011;5113;41.822;23.564;2023-04-01T13:59:58;6.50;;;4.20;;
10144;SDS011;5113;41.822;23.564;2023-04-01T14:06:54;4.53;;;3.53;;
10144;SDS011;5113;41.822;23.564;2023-04-01T14:10:11;12.83;;;8.07;;
10144;SDS011;5113;41.822;23.564;2023-04-01T14:13:27;14.43;;;7.73;;
10144;SDS011;5113;41.822;23.564;2023-04-01T14:20:33;10.90;;;7.20;;
10144;SDS011;5113;41.822;23.564;2023-04-01T14:23:49;5.80;;;4.17;;
10144;SDS011;5113;41.822;23.564;2023-04-01T14:27:19;4.80;;;4.40;;
10144;SDS011;5113;41.822;23.564;2023-04-01T14:30:50;7.40;;;5.10;;
10144;SDS011;5113;41.822;23.564;2023-04-01T14:34:20;6.50;;;3.63;;
10144;SDS011;5113;41.822;23.564;2023-04-01T14:37:39;8.63;;;4.27;;
10144;SDS011;5113;41.822;23.564;2023-04-01T14:41:24;9.77;;;5.33;;
10144;SDS011;5113;41.822;23.564;2023-04-01T14:44:51;6.17;;;4.47;;
10144;SDS011;5113;41.822;23.564;2023-04-01T14:48:15;8.77;;;4.90;;
10144;SDS011;5113;41.822;23.564;2023-04-01T14:51:29;9.13;;;6.60;;
10144;SDS011;5113;41.822;23.564;2023-04-01T14:54:40;10.53;;;5.43;;
10144;SDS011;5113;41.822;23.564;2023-04-01T14:57:57;19.20;;;11.40;;
10144;SDS011;5113;41.822;23.564;2023-04-01T15:01:13;11.27;;;7.20;;
10144;SDS011;5113;41.822;23.564;2023-04-01T15:04:39;6.93;;;5.17;;
10144;SDS011;5113;41.822;23.564;2023-04-01T15:08:03;6.23;;;4.43;;
10144;SDS011;5113;41.822;23.564;2023-04-01T15:11:18;7.87;;;5.00;;
10144;SDS011;5113;41.822;23.564;2023-04-01T15:14:37;4.33;;;3.17;;
10144;SDS011;5113;41.822;23.564;2023-04-01T15:18:01;19.37;;;9.63;;
10144;SDS011;5113;41.822;23.564;2023-04-01T15:21:18;37.27;;;15.07;;
10144;SDS011;5113;41.822;23.564;2023-04-01T15:24:40;62.57;;;25.40;;
10144;SDS011;5113;41.822;23.564;2023-04-01T15:27:53;88.10;;;36.90;;
10144;SDS011;5113;41.822;23.564;2023-04-01T15:31:10;40.77;;;18.33;;
10144;SDS011;5113;41.822;23.564;2023-04-01T15:34:30;38.33;;;21.20;;
10144;SDS011;5113;41.822;23.564;2023-04-01T15:37:43;117.20;;;50.53;;
10144;SDS011;5113;41.822;23.564;2023-04-01T15:41:00;33.13;;;17.50;;
10144;SDS011;5113;41.822;23.564;2023-04-01T15:44:26;36.00;;;21.47;;
10144;SDS011;5113;41.822;23.564;2023-04-01T15:47:45;24.57;;;17.13;;
10144;SDS011;5113;41.822;23.564;2023-04-01T15:51:10;24.97;;;16.40;;
10144;SDS011;5113;41.822;23.564;2023-04-01T15:54:27;15.10;;;8.70;;
10144;SDS011;5113;41.822;23.564;2023-04-01T15:57:47;18.07;;;11.83;;
10144;SDS011;5113;41.822;23.564;2023-04-01T16:01:13;19.60;;;11.77;;
10144;SDS011;5113;41.822;23.564;2023-04-01T16:04:38;19.53;;;13.40;;
10144;SDS011;5113;41.822;23.564;2023-04-01T16:08:05;36.10;;;23.93;;
10144;SDS011;5113;41.822;23.564;2023-04-01T16:11:28;19.40;;;14.80;;
10144;SDS011;5113;41.822;23.564;2023-04-01T16:14:43;28.47;;;18.37;;
10144;SDS011;5113;41.822;23.564;2023-04-01T16:18:09;15.23;;;10.23;;
10144;SDS011;5113;41.822;23.564;2023-04-01T16:21:34;16.33;;;10.67;;
10144;SDS011;5113;41.822;23.564;2023-04-01T16:24:46;30.70;;;17.17;;
10144;SDS011;5113;41.822;23.564;2023-04-01T16:27:59;41.73;;;21.53;;
10144;SDS011;5113;41.822;23.564;2023-04-01T16:31:25;41.93;;;20.33;;
10144;SDS011;5113;41.822;23.564;2023-04-01T16:34:38;53.43;;;24.80;;
10144;SDS011;5113;41.822;23.564;2023-04-01T16:37:50;51.00;;;22.90;;
10144;SDS011;5113;41.822;23.564;2023-04-01T16:41:10;38.40;;;16.97;;
10144;SDS011;5113;41.822;23.564;2023-04-01T16:44:20;34.50;;;15.40;;
10144;SDS011;5113;41.822;23.564;2023-04-01T16:47:29;32.73;;;15.23;;
10144;SDS011;5113;41.822;23.564;2023-04-01T16:50:48;14.07;;;8.63;;
10144;SDS011;5113;41.822;23.564;2023-04-01T16:54:02;18.90;;;8.43;;
10144;SDS011;5113;41.822;23.564;2023-04-01T16:57:17;12.50;;;9.20;;
10144;SDS011;5113;41.822;23.564;2023-04-01T17:00:26;19.60;;;11.73;;
10144;SDS011;5113;41.822;23.564;2023-04-01T17:03:36;9.87;;;6.40;;
10144;SDS011;5113;41.822;23.564;2023-04-01T17:06:47;7.40;;;4.20;;
10144;SDS011;5113;41.822;23.564;2023-04-01T17:13:46;7.90;;;7.10;;
10144;SDS011;5113;41.822;23.564;2023-04-01T17:17:01;24.43;;;12.97;;
10144;SDS011;5113;41.822;23.564;2023-04-01T17:20:28;12.53;;;8.53;;
10144;SDS011;5113;41.822;23.564;2023-04-01T17:23:42;12.23;;;9.83;;
10144;SDS011;5113;41.822;23.564;2023-04-01T17:26:54;20.63;;;11.13;;
10144;SDS011;5113;41.822;23.564;2023-04-01T17:37:25;21.53;;;10.47;;
10144;SDS011;5113;41.822;23.564;2023-04-01T17:40:44;17.23;;;10.17;;
10144;SDS011;5113;41.822;23.564;2023-04-01T17:44:07;20.70;;;13.17;;
10144;SDS011;5113;41.822;23.564;2023-04-01T17:47:31;29.30;;;18.33;;
10144;SDS011;5113;41.822;23.564;2023-04-01T17:50:49;34.80;;;19.57;;
10144;SDS011;5113;41.822;23.564;2023-04-01T17:54:05;62.20;;;35.20;;
10144;SDS011;5113;41.822;23.564;2023-04-01T17:57:28;92.83;;;51.07;;
10144;SDS011;5113;41.822;23.564;2023-04-01T18:00:48;69.23;;;36.20;;
10144;SDS011;5113;41.822;23.564;2023-04-01T18:04:10;61.27;;;32.20;;
10144;SDS011;5113;41.822;23.564;2023-04-01T18:07:30;62.70;;;32.37;;
10144;SDS011;5113;41.822;23.564;2023-04-01T18:10:57;73.77;;;38.30;;
10144;SDS011;5113;41.822;23.564;2023-04-01T18:14:28;67.40;;;36.37;;
10144;SDS011;5113;41.822;23.564;2023-04-01T18:17:52;71.83;;;36.37;;
10144;SDS011;5113;41.822;23.564;2023-04-01T18:21:09;27.37;;;16.87;;
10144;SDS011;5113;41.822;23.564;2023-04-01T18:24:26;9.63;;;6.50;;
10144;SDS011;5113;41.822;23.564;2023-04-01T18:27:38;9.87;;;6.20;;
10144;SDS011;5113;41.822;23.564;2023-04-01T18:30:50;6.90;;;4.73;;
10144;SDS011;5113;41.822;23.564;2023-04-01T18:34:00;6.67;;;4.93;;
10144;SDS011;5113;41.822;23.564;2023-04-01T18:37:16;14.93;;;10.07;;
10144;SDS011;5113;41.822;23.564;2023-04-01T18:40:25;32.93;;;18.10;;
10144;SDS011;5113;41.822;23.564;2023-04-01T18:43:39;37.17;;;20.27;;
10144;SDS011;5113;41.822;23.564;2023-04-01T18:47:03;24.70;;;14.90;;
10144;SDS011;5113;41.822;23.564;2023-04-01T18:50:19;21.87;;;14.43;;
10144;SDS011;5113;41.822;23.564;2023-04-01T18:53:31;29.93;;;18.93;;
10144;SDS011;5113;41.822;23.564;2023-04-01T18:56:44;29.67;;;18.10;;
10144;SDS011;5113;41.822;23.564;2023-04-01T18:59:52;40.97;;;21.97;;
10144;SDS011;5113;41.822;23.564;2023-04-01T19:03:06;37.90;;;23.13;;
10144;SDS011;5113;41.822;23.564;2023-04-01T19:06:18;25.80;;;17.27;;
10144;SDS011;5113;41.822;23.564;2023-04-01T19:09:31;19.60;;;12.33;;
10144;SDS011;5113;41.822;23.564;2023-04-01T19:12:54;11.17;;;8.07;;
10144;SDS011;5113;41.822;23.564;2023-04-01T19:16:12;8.03;;;5.63;;
10144;SDS011;5113;41.822;23.564;2023-04-01T19:23:11;7.33;;;5.33;;
10144;SDS011;5113;41.822;23.564;2023-04-01T19:26:33;5.90;;;4.90;;
10144;SDS011;5113;41.822;23.564;2023-04-01T19:29:47;10.77;;;9.03;;
10144;SDS011;5113;41.822;23.564;2023-04-01T19:33:12;16.00;;;9.87;;
10144;SDS011;5113;41.822;23.564;2023-04-01T19:36:29;10.60;;;7.00;;
10144;SDS011;5113;41.822;23.564;2023-04-01T19:39:45;9.43;;;6.87;;
10144;SDS011;5113;41.822;23.564;2023-04-01T19:42:59;20.10;;;11.50;;
10144;SDS011;5113;41.822;23.564;2023-04-01T19:46:17;29.57;;;15.27;;
10144;SDS011;5113;41.822;23.564;2023-04-01T19:49:36;17.57;;;11.33;;
10144;SDS011;5113;41.822;23.564;2023-04-01T19:52:47;14.67;;;7.73;;
10144;SDS011;5113;41.822;23.564;2023-04-01T19:55:58;12.97;;;7.53;;
10144;SDS011;5113;41.822;23.564;2023-04-01T19:59:15;17.50;;;10.07;;
10144;SDS011;5113;41.822;23.564;2023-04-01T20:02:39;19.00;;;10.67;;
10144;SDS011;5113;41.822;23.564;2023-04-01T20:06:00;10.40;;;7.97;;
10144;SDS011;5113;41.822;23.564;2023-04-01T20:09:22;16.67;;;11.00;;
10144;SDS011;5113;41.822;23.564;2023-04-01T20:12:42;34.97;;;16.63;;
10144;SDS011;5113;41.822;23.564;2023-04-01T20:16:01;27.77;;;13.10;;
10144;SDS011;5113;41.822;23.564;2023-04-01T20:19:10;20.97;;;11.67;;
10144;SDS011;5113;41.822;23.564;2023-04-01T20:22:23;30.87;;;15.20;;
10144;SDS011;5113;41.822;23.564;2023-04-01T20:25:38;23.13;;;12.93;;
10144;SDS011;5113;41.822;23.564;2023-04-01T20:28:56;20.13;;;13.77;;
10144;SDS011;5113;41.822;23.564;2023-04-01T20:32:28;17.47;;;11.20;;
10144;SDS011;5113;41.822;23.564;2023-04-01T20:35:49;18.60;;;11.60;;
10144;SDS011;5113;41.822;23.564;2023-04-01T20:39:20;24.67;;;12.67;;
10144;SDS011;5113;41.822;23.564;2023-04-01T20:42:45;24.97;;;15.07;;
10144;SDS011;5113;41.822;23.564;2023-04-01T20:46:04;22.50;;;11.93;;
10144;SDS011;5113;41.822;23.564;2023-04-01T20:49:34;20.40;;;11.30;;
10144;SDS011;5113;41.822;23.564;2023-04-01T20:52:48;11.80;;;8.40;;
10144;SDS011;5113;41.822;23.564;2023-04-01T20:56:09;7.80;;;4.57;;
10144;SDS011;5113;41.822;23.564;2023-04-01T20:59:25;4.83;;;3.20;;
10144;SDS011;5113;41.822;23.564;2023-04-01T21:02:48;3.33;;;2.83;;
10144;SDS011;5113;41.822;23.564;2023-04-01T21:06:12;6.97;;;3.97;;
10144;SDS011;5113;41.822;23.564;2023-04-01T21:09:29;4.93;;;2.97;;
10144;SDS011;5113;41.822;23.564;2023-04-01T21:12:47;3.63;;;3.00;;